sensor_id;sensor_type;location;lat;lon;timestamp;P1;P2;P0
73825;PMS5003;64145;55.060;73.168;2023-02-01T00:00:43;25.00;21.00;13.00
73825;PMS5003;64145;55.060;73.168;2023-02-01T00:03:08;19.67;18.00;10.00
73825;PMS5003;64145;55.060;73.168;2023-02-01T00:05:44;18.00;16.00;8.50
73825;PMS5003;64145;55.060;73.168;2023-02-01T00:08:12;13.00;12.00;5.00
73825;PMS5003;64145;55.060;73.168;2023-02-01T00:10:37;11.00;10.00;3.00
73825;PMS5003;64145;55.060;73.168;2023-02-01T00:13:03;10.33;9.00;3.00
73825;PMS5003;64145;55.060;73.168;2023-02-01T00:15:34;10.00;8.75;3.00
73825;PMS5003;64145;55.060;73.168;2023-02-01T00:18:10;8.00;8.00;3.00
73825;PMS5003;64145;55.060;73.168;2023-02-01T00:20:35;6.00;6.00;2.00
73825;PMS5003;64145;55.060;73.168;2023-02-01T00:23:01;8.00;6.00;2.33
73825;PMS5003;64145;55.060;73.168;2023-02-01T00:25:26;7.00;5.33;3.00
73825;PMS5003;64145;55.060;73.168;2023-02-01T00:28:02;10.50;10.00;5.00
73825;PMS5003;64145;55.060;73.168;2023-02-01T00:30:27;13.00;11.00;5.00
73825;PMS5003;64145;55.060;73.168;2023-02-01T00:32:53;14.67;13.33;5.00
73825;PMS5003;64145;55.060;73.168;2023-02-01T00:35:18;14.00;13.67;6.00
73825;PMS5003;64145;55.060;73.168;2023-02-01T00:37:44;13.00;12.00;6.00
73825;PMS5003;64145;55.060;73.168;2023-02-01T00:40:17;11.00;11.00;4.00
73825;PMS5003;64145;55.060;73.168;2023-02-01T00:42:43;11.67;11.00;5.00
73825;PMS5003;64145;55.060;73.168;2023-02-01T00:45:13;15.00;12.75;5.00
73825;PMS5003;64145;55.060;73.168;2023-02-01T00:47:44;13.25;12.75;5.00
73825;PMS5003;64145;55.060;73.168;2023-02-01T00:50:22;15.75;14.25;6.50
73825;PMS5003;64145;55.060;73.168;2023-02-01T00:52:57;18.00;17.00;10.00
73825;PMS5003;64145;55.060;73.168;2023-02-01T00:55:23;18.00;16.00;10.00
73825;PMS5003;64145;55.060;73.168;2023-02-01T00:57:48;17.67;15.00;8.00
73825;PMS5003;64145;55.060;73.168;2023-02-01T01:00:14;14.67;11.00;5.00
73825;PMS5003;64145;55.060;73.168;2023-02-01T01:02:39;11.33;10.00;4.00
73825;PMS5003;64145;55.060;73.168;2023-02-01T01:05:06;12.00;10.00;4.00
73825;PMS5003;64145;55.060;73.168;2023-02-01T01:07:32;13.67;12.00;6.00
73825;PMS5003;64145;55.060;73.168;2023-02-01T01:09:57;15.00;13.00;6.00
73825;PMS5003;64145;55.060;73.168;2023-02-01T01:12:23;15.00;13.00;7.00
73825;PMS5003;64145;55.060;73.168;2023-02-01T01:14:53;16.00;14.00;6.50
73825;PMS5003;64145;55.060;73.168;2023-02-01T01:17:18;14.00;14.00;8.00
73825;PMS5003;64145;55.060;73.168;2023-02-01T01:19:49;15.50;14.50;8.00
73825;PMS5003;64145;55.060;73.168;2023-02-01T01:22:20;16.00;15.00;7.00
73825;PMS5003;64145;55.060;73.168;2023-02-01T01:24:45;15.00;13.00;5.00
73825;PMS5003;64145;55.060;73.168;2023-02-01T01:27:11;12.67;12.00;5.00
73825;PMS5003;64145;55.060;73.168;2023-02-01T01:29:40;11.00;11.00;5.00
73825;PMS5003;64145;55.060;73.168;2023-02-01T01:32:16;11.75;11.00;5.00
73825;PMS5003;64145;55.060;73.168;2023-02-01T01:34:41;12.00;11.00;5.00
73825;PMS5003;64145;55.060;73.168;2023-02-01T01:37:09;12.33;11.33;5.00
73825;PMS5003;64145;55.060;73.168;2023-02-01T01:39:45;9.75;9.00;4.50
73825;PMS5003;64145;55.060;73.168;2023-02-01T01:42:11;15.00;13.33;6.00
73825;PMS5003;64145;55.060;73.168;2023-02-01T01:47:29;16.25;14.50;8.25
73825;PMS5003;64145;55.060;73.168;2023-02-01T01:49:56;14.50;13.25;7.00
73825;PMS5003;64145;55.060;73.168;2023-02-01T01:54:57;10.00;6.00;2.00
73825;PMS5003;64145;55.060;73.168;2023-02-01T01:57:25;8.75;6.25;3.00
73825;PMS5003;64145;55.060;73.168;2023-02-01T02:00:25;8.50;6.50;4.00
73825;PMS5003;64145;55.060;73.168;2023-02-01T02:02:58;10.00;8.00;3.00
73825;PMS5003;64145;55.060;73.168;2023-02-01T02:05:25;10.25;8.25;3.75
73825;PMS5003;64145;55.060;73.168;2023-02-01T02:07:52;10.00;10.00;3.50
73825;PMS5003;64145;55.060;73.168;2023-02-01T02:10:23;8.50;8.00;3.00
73825;PMS5003;64145;55.060;73.168;2023-02-01T02:13:19;10.75;7.00;3.00
73825;PMS5003;64145;55.060;73.168;2023-02-01T02:24:11;8.50;6.00;2.75
73825;PMS5003;64145;55.060;73.168;2023-02-01T02:26:51;9.50;8.00;3.25
73825;PMS5003;64145;55.060;73.168;2023-02-01T02:34:39;10.50;9.50;3.25
73825;PMS5003;64145;55.060;73.168;2023-02-01T02:45:49;22.75;20.00;12.00
73825;PMS5003;64145;55.060;73.168;2023-02-01T02:48:47;21.75;20.00;12.00
73825;PMS5003;64145;55.060;73.168;2023-02-01T02:51:36;22.75;20.00;12.50
73825;PMS5003;64145;55.060;73.168;2023-02-01T02:54:30;26.25;22.00;14.00
73825;PMS5003;64145;55.060;73.168;2023-02-01T02:57:26;23.00;20.75;13.00
73825;PMS5003;64145;55.060;73.168;2023-02-01T03:00:12;19.50;18.00;10.25
73825;PMS5003;64145;55.060;73.168;2023-02-01T03:02:58;18.00;17.25;10.50
73825;PMS5003;64145;55.060;73.168;2023-02-01T03:05:52;16.75;15.00;10.75
73825;PMS5003;64145;55.060;73.168;2023-02-01T03:08:28;17.75;16.00;10.00
73825;PMS5003;64145;55.060;73.168;2023-02-01T03:11:28;21.25;17.75;11.00
73825;PMS5003;64145;55.060;73.168;2023-02-01T03:16:17;24.00;20.00;12.00
73825;PMS5003;64145;55.060;73.168;2023-02-01T03:24:07;19.25;18.00;10.00
73825;PMS5003;64145;55.060;73.168;2023-02-01T03:26:35;16.25;15.00;10.00
73825;PMS5003;64145;55.060;73.168;2023-02-01T03:29:08;17.00;15.00;8.00
73825;PMS5003;64145;55.060;73.168;2023-02-01T03:31:46;14.75;13.00;7.25
73825;PMS5003;64145;55.060;73.168;2023-02-01T03:34:12;17.33;15.00;8.33
73825;PMS5003;64145;55.060;73.168;2023-02-01T03:36:51;15.00;12.50;6.00
73825;PMS5003;64145;55.060;73.168;2023-02-01T03:39:32;15.50;14.75;8.00
73825;PMS5003;64145;55.060;73.168;2023-02-01T03:42:04;16.25;15.00;10.00
73825;PMS5003;64145;55.060;73.168;2023-02-01T03:44:39;20.25;17.00;11.00
73825;PMS5003;64145;55.060;73.168;2023-02-01T03:49:35;20.00;18.25;11.25
73825;PMS5003;64145;55.060;73.168;2023-02-01T03:52:03;20.75;18.00;11.00
73825;PMS5003;64145;55.060;73.168;2023-02-01T03:54:30;17.25;15.00;10.50
73825;PMS5003;64145;55.060;73.168;2023-02-01T03:57:06;16.25;16.25;10.00
73825;PMS5003;64145;55.060;73.168;2023-02-01T03:59:33;22.00;18.00;11.25
73825;PMS5003;64145;55.060;73.168;2023-02-01T04:01:58;22.00;19.00;11.00
73825;PMS5003;64145;55.060;73.168;2023-02-01T04:04:24;22.33;20.00;12.00
73825;PMS5003;64145;55.060;73.168;2023-02-01T04:06:50;21.00;18.00;11.00
73825;PMS5003;64145;55.060;73.168;2023-02-01T04:09:28;22.25;20.00;13.00
73825;PMS5003;64145;55.060;73.168;2023-02-01T04:11:54;23.25;20.00;12.75
73825;PMS5003;64145;55.060;73.168;2023-02-01T04:14:24;23.00;20.00;12.50
73825;PMS5003;64145;55.060;73.168;2023-02-01T04:16:50;25.00;20.00;13.00
73825;PMS5003;64145;55.060;73.168;2023-02-01T04:19:25;23.00;20.00;12.25
73825;PMS5003;64145;55.060;73.168;2023-02-01T04:21:53;25.33;20.67;13.67
73825;PMS5003;64145;55.060;73.168;2023-02-01T04:24:30;28.50;22.00;13.00
73825;PMS5003;64145;55.060;73.168;2023-02-01T04:27:05;30.75;24.00;15.00
73825;PMS5003;64145;55.060;73.168;2023-02-01T04:29:36;28.75;22.25;14.00
73825;PMS5003;64145;55.060;73.168;2023-02-01T04:32:02;22.33;20.00;12.00
73825;PMS5003;64145;55.060;73.168;2023-02-01T04:34:27;22.67;20.00;13.33
73825;PMS5003;64145;55.060;73.168;2023-02-01T04:37:05;27.00;21.00;14.00
73825;PMS5003;64145;55.060;73.168;2023-02-01T04:39:31;24.00;21.00;12.00
73825;PMS5003;64145;55.060;73.168;2023-02-01T04:41:59;22.50;20.00;12.00
73825;PMS5003;64145;55.060;73.168;2023-02-01T04:44:25;22.67;19.67;12.00
73825;PMS5003;64145;55.060;73.168;2023-02-01T04:46:50;23.67;21.00;13.00
73825;PMS5003;64145;55.060;73.168;2023-02-01T04:49:26;22.25;20.50;12.50
73825;PMS5003;64145;55.060;73.168;2023-02-01T04:51:52;21.33;19.33;12.00
73825;PMS5003;64145;55.060;73.168;2023-02-01T04:54:22;22.75;19.50;12.00
73825;PMS5003;64145;55.060;73.168;2023-02-01T04:56:47;28.00;23.00;14.00
73825;PMS5003;64145;55.060;73.168;2023-02-01T04:59:13;28.00;21.33;14.00
73825;PMS5003;64145;55.060;73.168;2023-02-01T05:01:46;27.00;21.33;14.00
73825;PMS5003;64145;55.060;73.168;2023-02-01T05:04:11;27.50;23.25;14.75
73825;PMS5003;64145;55.060;73.168;2023-02-01T05:06:37;27.00;22.00;14.33
73825;PMS5003;64145;55.060;73.168;2023-02-01T05:09:10;25.50;20.75;13.25
73825;PMS5003;64145;55.060;73.168;2023-02-01T05:11:41;31.00;24.00;14.50
73825;PMS5003;64145;55.060;73.168;2023-02-01T05:14:33;31.50;25.50;16.00
73825;PMS5003;64145;55.060;73.168;2023-02-01T05:17:04;30.75;25.00;15.00
73825;PMS5003;64145;55.060;73.168;2023-02-01T05:19:29;33.25;25.75;15.50
73825;PMS5003;64145;55.060;73.168;2023-02-01T05:21:55;33.33;26.00;16.33
73825;PMS5003;64145;55.060;73.168;2023-02-01T05:24:20;33.33;26.00;16.33
73825;PMS5003;64145;55.060;73.168;2023-02-01T05:26:53;30.75;24.50;16.00
73825;PMS5003;64145;55.060;73.168;2023-02-01T05:29:24;29.00;23.25;14.75
73825;PMS5003;64145;55.060;73.168;2023-02-01T05:31:49;30.00;24.00;14.33
73825;PMS5003;64145;55.060;73.168;2023-02-01T05:34:25;31.50;25.00;16.00
73825;PMS5003;64145;55.060;73.168;2023-02-01T05:36:59;33.33;27.00;17.00
73825;PMS5003;64145;55.060;73.168;2023-02-01T05:39:24;30.50;24.00;15.75
73825;PMS5003;64145;55.060;73.168;2023-02-01T05:41:50;31.33;24.00;15.00
73825;PMS5003;64145;55.060;73.168;2023-02-01T05:44:16;32.00;26.00;16.00
73825;PMS5003;64145;55.060;73.168;2023-02-01T05:46:53;33.50;26.00;16.50
73825;PMS5003;64145;55.060;73.168;2023-02-01T05:49:21;31.25;24.50;15.00
73825;PMS5003;64145;55.060;73.168;2023-02-01T05:51:52;32.00;26.00;16.00
73825;PMS5003;64145;55.060;73.168;2023-02-01T05:54:17;31.33;25.67;15.67
73825;PMS5003;64145;55.060;73.168;2023-02-01T05:56:43;34.00;27.33;16.33
73825;PMS5003;64145;55.060;73.168;2023-02-01T05:59:09;33.33;27.00;17.00
73825;PMS5003;64145;55.060;73.168;2023-02-01T06:01:42;32.25;25.75;16.00
73825;PMS5003;64145;55.060;73.168;2023-02-01T06:04:18;27.75;22.00;14.00
73825;PMS5003;64145;55.060;73.168;2023-02-01T06:06:50;28.50;23.00;14.00
73825;PMS5003;64145;55.060;73.168;2023-02-01T06:09:16;28.00;22.00;13.00
73825;PMS5003;64145;55.060;73.168;2023-02-01T06:11:41;24.00;21.00;13.00
73825;PMS5003;64145;55.060;73.168;2023-02-01T06:14:09;24.00;21.00;13.00
73825;PMS5003;64145;55.060;73.168;2023-02-01T06:16:40;26.00;22.00;14.00
73825;PMS5003;64145;55.060;73.168;2023-02-01T06:19:07;24.00;21.00;13.00
73825;PMS5003;64145;55.060;73.168;2023-02-01T06:21:35;20.50;19.00;12.00
73825;PMS5003;64145;55.060;73.168;2023-02-01T06:24:00;27.00;22.50;15.00
73825;PMS5003;64145;55.060;73.168;2023-02-01T06:26:26;23.00;20.00;13.00
73825;PMS5003;64145;55.060;73.168;2023-02-01T06:28:53;24.50;20.00;13.00
73825;PMS5003;64145;55.060;73.168;2023-02-01T06:31:20;22.50;19.00;11.00
73825;PMS5003;64145;55.060;73.168;2023-02-01T06:33:46;26.33;21.00;13.00
73825;PMS5003;64145;55.060;73.168;2023-02-01T06:36:12;25.50;21.00;13.00
73825;PMS5003;64145;55.060;73.168;2023-02-01T06:38:38;25.50;22.75;14.00
73825;PMS5003;64145;55.060;73.168;2023-02-01T06:41:04;29.33;25.00;15.00
73825;PMS5003;64145;55.060;73.168;2023-02-01T06:43:34;31.00;25.00;15.00
73825;PMS5003;64145;55.060;73.168;2023-02-01T06:46:03;29.00;23.00;15.00
73825;PMS5003;64145;55.060;73.168;2023-02-01T06:48:34;29.00;23.25;14.50
73825;PMS5003;64145;55.060;73.168;2023-02-01T06:51:01;25.00;21.00;13.00
73825;PMS5003;64145;55.060;73.168;2023-02-01T06:53:27;23.50;21.00;13.00
73825;PMS5003;64145;55.060;73.168;2023-02-01T06:56:00;23.50;21.00;13.00
73825;PMS5003;64145;55.060;73.168;2023-02-01T06:58:36;23.00;19.00;12.00
73825;PMS5003;64145;55.060;73.168;2023-02-01T07:01:08;23.25;19.50;13.00
73825;PMS5003;64145;55.060;73.168;2023-02-01T07:03:39;22.25;19.00;12.00
73825;PMS5003;64145;55.060;73.168;2023-02-01T07:06:05;19.00;16.33;9.00
73825;PMS5003;64145;55.060;73.168;2023-02-01T07:08:36;19.75;17.50;9.75
73825;PMS5003;64145;55.060;73.168;2023-02-01T07:11:06;21.25;19.25;11.50
73825;PMS5003;64145;55.060;73.168;2023-02-01T07:13:37;21.00;19.00;12.00
73825;PMS5003;64145;55.060;73.168;2023-02-01T07:16:15;20.25;18.75;11.00
73825;PMS5003;64145;55.060;73.168;2023-02-01T07:18:42;25.50;21.50;14.00
73825;PMS5003;64145;55.060;73.168;2023-02-01T07:21:08;27.33;21.33;14.00
73825;PMS5003;64145;55.060;73.168;2023-02-01T07:23:33;28.75;23.00;15.00
73825;PMS5003;64145;55.060;73.168;2023-02-01T07:26:01;22.33;20.00;13.33
73825;PMS5003;64145;55.060;73.168;2023-02-01T07:28:33;21.50;19.00;13.00
73825;PMS5003;64145;55.060;73.168;2023-02-01T07:31:07;20.25;17.25;11.00
73825;PMS5003;64145;55.060;73.168;2023-02-01T07:33:33;24.00;19.50;11.50
73825;PMS5003;64145;55.060;73.168;2023-02-01T07:36:05;21.50;18.00;12.00
73825;PMS5003;64145;55.060;73.168;2023-02-01T07:38:43;17.75;14.00;8.00
73825;PMS5003;64145;55.060;73.168;2023-02-01T07:41:18;15.50;14.00;7.50
73825;PMS5003;64145;55.060;73.168;2023-02-01T07:43:54;19.00;18.00;10.50
73825;PMS5003;64145;55.060;73.168;2023-02-01T07:46:19;19.67;18.00;11.33
73825;PMS5003;64145;55.060;73.168;2023-02-01T07:48:45;19.00;18.00;10.00
73825;PMS5003;64145;55.060;73.168;2023-02-01T07:51:19;20.67;19.33;10.00
73825;PMS5003;64145;55.060;73.168;2023-02-01T07:53:45;21.00;18.75;12.00
73825;PMS5003;64145;55.060;73.168;2023-02-01T07:56:15;22.00;20.00;12.00
73825;PMS5003;64145;55.060;73.168;2023-02-01T07:58:51;22.00;18.00;12.00
73825;PMS5003;64145;55.060;73.168;2023-02-01T08:01:30;24.00;20.00;11.00
73825;PMS5003;64145;55.060;73.168;2023-02-01T08:03:57;24.00;20.00;11.25
73825;PMS5003;64145;55.060;73.168;2023-02-01T08:06:30;22.00;20.00;13.00
73825;PMS5003;64145;55.060;73.168;2023-02-01T08:08:56;26.50;21.25;13.75
73825;PMS5003;64145;55.060;73.168;2023-02-01T08:11:27;26.25;22.00;13.00
73825;PMS5003;64145;55.060;73.168;2023-02-01T08:13:53;27.00;22.33;14.00
73825;PMS5003;64145;55.060;73.168;2023-02-01T08:16:19;27.00;23.00;14.00
73825;PMS5003;64145;55.060;73.168;2023-02-01T08:18:46;23.75;21.00;13.00
73825;PMS5003;64145;55.060;73.168;2023-02-01T08:21:18;24.00;21.00;13.75
73825;PMS5003;64145;55.060;73.168;2023-02-01T08:23:44;23.00;22.00;13.00
73825;PMS5003;64145;55.060;73.168;2023-02-01T08:26:16;21.00;20.00;12.00
73825;PMS5003;64145;55.060;73.168;2023-02-01T08:28:43;24.00;20.25;12.00
73825;PMS5003;64145;55.060;73.168;2023-02-01T08:31:12;24.00;20.75;12.00
73825;PMS5003;64145;55.060;73.168;2023-02-01T08:33:40;24.75;21.00;13.00
73825;PMS5003;64145;55.060;73.168;2023-02-01T08:36:07;24.50;20.00;13.00
73825;PMS5003;64145;55.060;73.168;2023-02-01T08:38:42;22.50;20.25;13.00
73825;PMS5003;64145;55.060;73.168;2023-02-01T08:41:11;23.50;20.00;13.00
73825;PMS5003;64145;55.060;73.168;2023-02-01T08:43:37;22.50;19.00;12.50
73825;PMS5003;64145;55.060;73.168;2023-02-01T08:46:04;24.00;20.00;12.00
73825;PMS5003;64145;55.060;73.168;2023-02-01T08:48:30;21.75;18.75;12.00
73825;PMS5003;64145;55.060;73.168;2023-02-01T08:50:55;22.00;19.75;13.00
73825;PMS5003;64145;55.060;73.168;2023-02-01T08:53:21;19.00;17.00;12.00
73825;PMS5003;64145;55.060;73.168;2023-02-01T08:55:47;18.00;18.00;12.00
73825;PMS5003;64145;55.060;73.168;2023-02-01T08:58:12;20.33;17.00;12.00
73825;PMS5003;64145;55.060;73.168;2023-02-01T09:00:39;17.00;16.00;10.00
73825;PMS5003;64145;55.060;73.168;2023-02-01T09:03:05;17.00;16.00;10.00
73825;PMS5003;64145;55.060;73.168;2023-02-01T09:05:31;17.00;15.00;10.00
73825;PMS5003;64145;55.060;73.168;2023-02-01T09:08:01;18.00;16.00;9.00
73825;PMS5003;64145;55.060;73.168;2023-02-01T09:10:27;17.00;15.00;7.67
73825;PMS5003;64145;55.060;73.168;2023-02-01T09:12:58;20.50;17.50;7.75
73825;PMS5003;64145;55.060;73.168;2023-02-01T09:15:28;16.50;13.00;7.75
73825;PMS5003;64145;55.060;73.168;2023-02-01T09:17:54;17.67;14.67;7.67
73825;PMS5003;64145;55.060;73.168;2023-02-01T09:20:19;20.00;18.33;9.00
73825;PMS5003;64145;55.060;73.168;2023-02-01T09:22:58;14.25;14.00;8.00
73825;PMS5003;64145;55.060;73.168;2023-02-01T09:25:25;17.50;17.00;10.00
73825;PMS5003;64145;55.060;73.168;2023-02-01T09:27:53;20.00;16.00;12.00
73825;PMS5003;64145;55.060;73.168;2023-02-01T09:30:29;18.00;16.00;10.00
73825;PMS5003;64145;55.060;73.168;2023-02-01T09:32:54;16.33;15.00;8.00
73825;PMS5003;64145;55.060;73.168;2023-02-01T09:35:20;16.00;16.00;8.00
73825;PMS5003;64145;55.060;73.168;2023-02-01T09:37:46;16.67;16.00;7.67
73825;PMS5003;64145;55.060;73.168;2023-02-01T09:40:15;13.00;12.00;6.00
73825;PMS5003;64145;55.060;73.168;2023-02-01T09:45:14;14.00;12.00;5.33
73825;PMS5003;64145;55.060;73.168;2023-02-01T09:47:45;17.25;14.75;6.75
73825;PMS5003;64145;55.060;73.168;2023-02-01T09:50:14;19.00;17.75;8.00
73825;PMS5003;64145;55.060;73.168;2023-02-01T09:52:47;18.75;18.25;10.00
73825;PMS5003;64145;55.060;73.168;2023-02-01T09:55:42;19.00;18.25;10.00
73825;PMS5003;64145;55.060;73.168;2023-02-01T10:00:47;18.00;16.00;9.50
73825;PMS5003;64145;55.060;73.168;2023-02-01T10:03:15;18.00;16.00;9.00
73825;PMS5003;64145;55.060;73.168;2023-02-01T10:10:46;20.67;17.00;11.00
73825;PMS5003;64145;55.060;73.168;2023-02-01T10:23:38;20.00;17.33;12.00
73825;PMS5003;64145;55.060;73.168;2023-02-01T10:26:18;19.00;18.00;11.00
73825;PMS5003;64145;55.060;73.168;2023-02-01T10:28:49;20.00;18.00;11.25
73825;PMS5003;64145;55.060;73.168;2023-02-01T10:31:15;20.75;20.00;12.00
73825;PMS5003;64145;55.060;73.168;2023-02-01T10:33:46;19.75;18.25;12.00
73825;PMS5003;64145;55.060;73.168;2023-02-01T10:39:04;18.25;16.00;10.00
73825;PMS5003;64145;55.060;73.168;2023-02-01T10:41:34;18.67;17.67;10.33
73825;PMS5003;64145;55.060;73.168;2023-02-01T10:44:12;20.00;20.00;12.00
73825;PMS5003;64145;55.060;73.168;2023-02-01T10:46:39;20.00;18.75;12.00
73825;PMS5003;64145;55.060;73.168;2023-02-01T10:49:05;24.33;21.00;13.00
73825;PMS5003;64145;55.060;73.168;2023-02-01T10:51:42;28.75;22.50;15.00
73825;PMS5003;64145;55.060;73.168;2023-02-01T10:54:11;23.50;20.50;13.00
73825;PMS5003;64145;55.060;73.168;2023-02-01T10:56:44;24.00;20.00;13.00
73825;PMS5003;64145;55.060;73.168;2023-02-01T10:59:20;24.75;20.00;13.00
73825;PMS5003;64145;55.060;73.168;2023-02-01T11:01:47;29.00;23.00;13.00
73825;PMS5003;64145;55.060;73.168;2023-02-01T11:04:14;23.50;20.25;12.00
73825;PMS5003;64145;55.060;73.168;2023-02-01T11:06:44;20.00;18.00;10.00
73825;PMS5003;64145;55.060;73.168;2023-02-01T11:14:15;22.00;19.00;12.00
73825;PMS5003;64145;55.060;73.168;2023-02-01T11:16:41;22.00;19.75;12.00
73825;PMS5003;64145;55.060;73.168;2023-02-01T11:19:12;24.75;21.00;13.00
73825;PMS5003;64145;55.060;73.168;2023-02-01T11:21:39;24.75;21.50;13.00
73825;PMS5003;64145;55.060;73.168;2023-02-01T11:24:11;27.50;22.75;13.25
73825;PMS5003;64145;55.060;73.168;2023-02-01T11:26:44;25.50;21.00;13.00
73825;PMS5003;64145;55.060;73.168;2023-02-01T11:29:16;26.00;22.00;13.00
73825;PMS5003;64145;55.060;73.168;2023-02-01T11:31:42;26.75;22.00;13.50
73825;PMS5003;64145;55.060;73.168;2023-02-01T11:34:14;27.75;22.50;14.00
73825;PMS5003;64145;55.060;73.168;2023-02-01T11:36:40;26.50;21.50;14.00
73825;PMS5003;64145;55.060;73.168;2023-02-01T11:39:16;25.50;21.50;13.00
73825;PMS5003;64145;55.060;73.168;2023-02-01T11:44:38;23.50;20.00;13.00
73825;PMS5003;64145;55.060;73.168;2023-02-01T11:49:48;27.00;22.00;14.00
73825;PMS5003;64145;55.060;73.168;2023-02-01T11:52:29;29.00;23.00;14.00
73825;PMS5003;64145;55.060;73.168;2023-02-01T11:58:05;23.00;19.00;13.00
73825;PMS5003;64145;55.060;73.168;2023-02-01T12:02:59;21.00;20.67;12.33
73825;PMS5003;64145;55.060;73.168;2023-02-01T12:13:38;42.50;33.00;20.00
73825;PMS5003;64145;55.060;73.168;2023-02-01T12:31:42;48.50;40.75;25.00
73825;PMS5003;64145;55.060;73.168;2023-02-01T12:39:52;51.00;43.50;26.75
73825;PMS5003;64145;55.060;73.168;2023-02-01T12:45:02;51.25;44.50;27.00
73825;PMS5003;64145;55.060;73.168;2023-02-01T12:47:41;52.25;46.25;28.50
73825;PMS5003;64145;55.060;73.168;2023-02-01T12:50:27;59.75;53.50;32.50
73825;PMS5003;64145;55.060;73.168;2023-02-01T12:53:06;53.50;47.25;27.50
73825;PMS5003;64145;55.060;73.168;2023-02-01T12:55:42;47.50;40.75;24.50
73825;PMS5003;64145;55.060;73.168;2023-02-01T13:01:03;49.50;42.00;24.75
73825;PMS5003;64145;55.060;73.168;2023-02-01T13:03:38;50.75;45.50;26.50
73825;PMS5003;64145;55.060;73.168;2023-02-01T13:06:10;50.75;44.50;26.50
73825;PMS5003;64145;55.060;73.168;2023-02-01T13:08:48;47.50;40.00;24.00
73825;PMS5003;64145;55.060;73.168;2023-02-01T13:11:42;45.50;35.00;22.50
73825;PMS5003;64145;55.060;73.168;2023-02-01T13:16:43;39.75;31.00;20.00
73825;PMS5003;64145;55.060;73.168;2023-02-01T13:21:53;36.00;29.00;19.00
73825;PMS5003;64145;55.060;73.168;2023-02-01T13:25:12;39.50;30.50;19.50
73825;PMS5003;64145;55.060;73.168;2023-02-01T13:27:21;43.50;33.50;20.50
73825;PMS5003;64145;55.060;73.168;2023-02-01T13:29:55;45.00;34.67;22.00
73825;PMS5003;64145;55.060;73.168;2023-02-01T13:40:49;40.25;31.50;19.75
73825;PMS5003;64145;55.060;73.168;2023-02-01T13:43:26;39.00;30.00;19.00
73825;PMS5003;64145;55.060;73.168;2023-02-01T13:45:53;37.50;29.50;18.50
73825;PMS5003;64145;55.060;73.168;2023-02-01T13:48:26;34.00;27.00;17.00
73825;PMS5003;64145;55.060;73.168;2023-02-01T13:50:58;35.50;28.00;17.75
73825;PMS5003;64145;55.060;73.168;2023-02-01T13:53:34;36.25;29.50;18.00
73825;PMS5003;64145;55.060;73.168;2023-02-01T13:56:23;37.25;29.50;18.00
73825;PMS5003;64145;55.060;73.168;2023-02-01T13:58:48;44.75;35.75;22.75
73825;PMS5003;64145;55.060;73.168;2023-02-01T14:01:35;41.75;33.00;21.25
73825;PMS5003;64145;55.060;73.168;2023-02-01T14:04:01;42.75;34.50;22.00
73825;PMS5003;64145;55.060;73.168;2023-02-01T14:11:53;43.00;33.50;22.25
73825;PMS5003;64145;55.060;73.168;2023-02-01T14:19:29;37.00;29.00;18.00
73825;PMS5003;64145;55.060;73.168;2023-02-01T14:22:00;47.00;39.00;24.00
73825;PMS5003;64145;55.060;73.168;2023-02-01T14:24:35;46.00;37.00;23.00
73825;PMS5003;64145;55.060;73.168;2023-02-01T14:29:40;52.00;46.00;29.00
73825;PMS5003;64145;55.060;73.168;2023-02-01T14:32:16;47.25;38.75;24.00
73825;PMS5003;64145;55.060;73.168;2023-02-01T14:44:54;55.50;51.50;30.25
73825;PMS5003;64145;55.060;73.168;2023-02-01T14:47:31;66.25;60.75;35.75
73825;PMS5003;64145;55.060;73.168;2023-02-01T14:52:49;72.00;65.75;37.50
73825;PMS5003;64145;55.060;73.168;2023-02-01T14:55:21;46.25;38.00;22.00
73825;PMS5003;64145;55.060;73.168;2023-02-01T14:57:50;41.00;31.75;20.00
73825;PMS5003;64145;55.060;73.168;2023-02-01T15:00:29;44.50;36.00;22.00
73825;PMS5003;64145;55.060;73.168;2023-02-01T15:02:56;58.50;53.25;31.25
73825;PMS5003;64145;55.060;73.168;2023-02-01T15:05:38;55.25;51.25;29.50
73825;PMS5003;64145;55.060;73.168;2023-02-01T15:08:05;49.00;42.00;24.00
73825;PMS5003;64145;55.060;73.168;2023-02-01T15:10:33;51.00;44.75;25.25
73825;PMS5003;64145;55.060;73.168;2023-02-01T15:13:04;46.25;37.25;22.50
73825;PMS5003;64145;55.060;73.168;2023-02-01T15:15:30;39.00;30.00;19.00
73825;PMS5003;64145;55.060;73.168;2023-02-01T15:17:58;37.00;29.50;18.00
73825;PMS5003;64145;55.060;73.168;2023-02-01T15:20:31;36.75;29.50;18.00
73825;PMS5003;64145;55.060;73.168;2023-02-01T15:23:01;36.50;29.25;18.00
73825;PMS5003;64145;55.060;73.168;2023-02-01T15:25:28;34.00;27.50;17.00
73825;PMS5003;64145;55.060;73.168;2023-02-01T15:27:54;33.50;27.00;17.00
73825;PMS5003;64145;55.060;73.168;2023-02-01T15:30:27;32.00;26.50;16.50
73825;PMS5003;64145;55.060;73.168;2023-02-01T15:41:17;30.50;24.50;15.25
73825;PMS5003;64145;55.060;73.168;2023-02-01T15:46:32;30.00;24.00;16.00
73825;PMS5003;64145;55.060;73.168;2023-02-01T15:48:58;31.50;25.75;16.25
73825;PMS5003;64145;55.060;73.168;2023-02-01T15:51:27;34.00;28.00;16.75
73825;PMS5003;64145;55.060;73.168;2023-02-01T15:53:55;35.00;28.00;17.00
73825;PMS5003;64145;55.060;73.168;2023-02-01T15:56:23;35.50;27.75;17.00
73825;PMS5003;64145;55.060;73.168;2023-02-01T15:58:50;33.75;27.00;16.50
73825;PMS5003;64145;55.060;73.168;2023-02-01T16:01:17;31.50;25.00;16.50
73825;PMS5003;64145;55.060;73.168;2023-02-01T16:03:48;30.75;24.00;15.00
73825;PMS5003;64145;55.060;73.168;2023-02-01T16:13:58;35.50;28.00;18.00
73825;PMS5003;64145;55.060;73.168;2023-02-01T16:16:34;34.50;28.00;17.00
73825;PMS5003;64145;55.060;73.168;2023-02-01T16:19:00;34.00;28.00;18.00
73825;PMS5003;64145;55.060;73.168;2023-02-01T16:21:25;34.00;27.00;17.00
73825;PMS5003;64145;55.060;73.168;2023-02-01T16:23:52;32.50;26.50;16.50
73825;PMS5003;64145;55.060;73.168;2023-02-01T16:26:19;33.50;28.00;17.00
73825;PMS5003;64145;55.060;73.168;2023-02-01T16:28:45;37.50;30.00;18.00
73825;PMS5003;64145;55.060;73.168;2023-02-01T16:31:14;35.50;28.00;18.00
73825;PMS5003;64145;55.060;73.168;2023-02-01T16:33:50;34.75;28.00;17.00
73825;PMS5003;64145;55.060;73.168;2023-02-01T16:36:21;37.00;28.00;18.00
73825;PMS5003;64145;55.060;73.168;2023-02-01T16:38:56;37.50;29.00;17.00
73825;PMS5003;64145;55.060;73.168;2023-02-01T16:41:22;38.00;29.00;18.00
73825;PMS5003;64145;55.060;73.168;2023-02-01T16:43:54;37.00;28.00;18.00
73825;PMS5003;64145;55.060;73.168;2023-02-01T16:46:31;36.00;28.00;18.00